sensor_id;sensor_type;location;lat;lon;timestamp;temperature;humidity
59128;DHT22;44912;52.754;5.994;2023-11-19T00:01:28;13.00;99.90
59128;DHT22;44912;52.754;5.994;2023-11-19T00:03:53;13.00;99.90
59128;DHT22;44912;52.754;5.994;2023-11-19T00:06:19;13.00;99.90
59128;DHT22;44912;52.754;5.994;2023-11-19T00:08:44;13.00;99.90
59128;DHT22;44912;52.754;5.994;2023-11-19T00:11:10;13.00;99.90
59128;DHT22;44912;52.754;5.994;2023-11-19T00:13:36;13.10;99.90
59128;DHT22;44912;52.754;5.994;2023-11-19T00:16:02;13.10;99.90
59128;DHT22;44912;52.754;5.994;2023-11-19T00:18:29;13.10;99.90
59128;DHT22;44912;52.754;5.994;2023-11-19T00:20:55;13.10;99.90
59128;DHT22;44912;52.754;5.994;2023-11-19T00:23:20;13.10;99.90
59128;DHT22;44912;52.754;5.994;2023-11-19T00:25:46;13.10;99.90
59128;DHT22;44912;52.754;5.994;2023-11-19T00:28:13;13.10;99.90
59128;DHT22;44912;52.754;5.994;2023-11-19T00:30:38;13.10;99.90
59128;DHT22;44912;52.754;5.994;2023-11-19T00:33:06;13.10;99.90
59128;DHT22;44912;52.754;5.994;2023-11-19T00:35:31;13.10;99.90
59128;DHT22;44912;52.754;5.994;2023-11-19T00:37:58;13.10;99.90
59128;DHT22;44912;52.754;5.994;2023-11-19T00:40:23;13.10;99.90
59128;DHT22;44912;52.754;5.994;2023-11-19T00:42:49;13.10;99.90
59128;DHT22;44912;52.754;5.994;2023-11-19T00:45:15;13.10;99.90
59128;DHT22;44912;52.754;5.994;2023-11-19T00:47:41;13.10;99.90
59128;DHT22;44912;52.754;5.994;2023-11-19T00:50:07;13.10;99.90
59128;DHT22;44912;52.754;5.994;2023-11-19T00:52:35;13.10;99.90
59128;DHT22;44912;52.754;5.994;2023-11-19T00:55:01;13.10;99.90
59128;DHT22;44912;52.754;5.994;2023-11-19T00:57:27;13.10;99.90
59128;DHT22;44912;52.754;5.994;2023-11-19T00:59:53;13.10;99.90
59128;DHT22;44912;52.754;5.994;2023-11-19T01:02:18;13.10;99.90
59128;DHT22;44912;52.754;5.994;2023-11-19T01:04:44;13.10;99.90
59128;DHT22;44912;52.754;5.994;2023-11-19T01:07:10;13.10;99.90
59128;DHT22;44912;52.754;5.994;2023-11-19T01:09:38;13.10;99.90
59128;DHT22;44912;52.754;5.994;2023-11-19T01:12:04;13.10;99.90
59128;DHT22;44912;52.754;5.994;2023-11-19T01:14:30;13.10;99.90
59128;DHT22;44912;52.754;5.994;2023-11-19T01:16:56;13.10;99.90
59128;DHT22;44912;52.754;5.994;2023-11-19T01:19:22;13.10;99.90
59128;DHT22;44912;52.754;5.994;2023-11-19T01:21:48;13.10;99.90
59128;DHT22;44912;52.754;5.994;2023-11-19T01:24:14;13.10;99.90
59128;DHT22;44912;52.754;5.994;2023-11-19T01:26:40;13.20;99.90
59128;DHT22;44912;52.754;5.994;2023-11-19T01:29:11;13.10;99.90
59128;DHT22;44912;52.754;5.994;2023-11-19T01:31:39;13.10;99.90
59128;DHT22;44912;52.754;5.994;2023-11-19T01:34:05;13.00;99.90
59128;DHT22;44912;52.754;5.994;2023-11-19T01:36:30;13.00;99.90
59128;DHT22;44912;52.754;5.994;2023-11-19T01:38:56;13.00;99.90
59128;DHT22;44912;52.754;5.994;2023-11-19T01:41:22;13.00;99.90
59128;DHT22;44912;52.754;5.994;2023-11-19T01:43:47;12.90;99.90
59128;DHT22;44912;52.754;5.994;2023-11-19T01:46:13;12.90;99.90
59128;DHT22;44912;52.754;5.994;2023-11-19T01:48:44;13.00;99.90
59128;DHT22;44912;52.754;5.994;2023-11-19T01:51:11;12.90;99.90
59128;DHT22;44912;52.754;5.994;2023-11-19T01:53:38;12.80;99.90
59128;DHT22;44912;52.754;5.994;2023-11-19T01:56:05;12.70;99.90
59128;DHT22;44912;52.754;5.994;2023-11-19T01:58:37;12.70;99.90
59128;DHT22;44912;52.754;5.994;2023-11-19T02:01:05;12.60;99.90
59128;DHT22;44912;52.754;5.994;2023-11-19T02:03:32;12.60;99.90
59128;DHT22;44912;52.754;5.994;2023-11-19T02:06:02;12.50;99.90
59128;DHT22;44912;52.754;5.994;2023-11-19T02:08:29;12.60;99.90
59128;DHT22;44912;52.754;5.994;2023-11-19T02:10:55;12.60;99.90
59128;DHT22;44912;52.754;5.994;2023-11-19T02:13:24;12.60;99.90
59128;DHT22;44912;52.754;5.994;2023-11-19T02:15:50;12.60;99.90
59128;DHT22;44912;52.754;5.994;2023-11-19T02:18:34;12.60;99.90
59128;DHT22;44912;52.754;5.994;2023-11-19T02:21:00;12.70;99.90
59128;DHT22;44912;52.754;5.994;2023-11-19T02:23:30;12.70;99.90
59128;DHT22;44912;52.754;5.994;2023-11-19T02:28:46;12.80;99.90
59128;DHT22;44912;52.754;5.994;2023-11-19T02:31:12;12.80;99.90
59128;DHT22;44912;52.754;5.994;2023-11-19T02:33:38;12.80;99.90
59128;DHT22;44912;52.754;5.994;2023-11-19T02:36:05;12.80;99.90
59128;DHT22;44912;52.754;5.994;2023-11-19T02:38:35;12.80;99.90
59128;DHT22;44912;52.754;5.994;2023-11-19T02:41:04;12.70;99.90
59128;DHT22;44912;52.754;5.994;2023-11-19T02:43:31;12.80;99.90
59128;DHT22;44912;52.754;5.994;2023-11-19T02:46:05;12.80;99.90
59128;DHT22;44912;52.754;5.994;2023-11-19T02:48:34;12.80;99.90
59128;DHT22;44912;52.754;5.994;2023-11-19T02:51:03;12.80;99.90
59128;DHT22;44912;52.754;5.994;2023-11-19T02:53:30;12.70;99.90
59128;DHT22;44912;52.754;5.994;2023-11-19T02:55:57;12.70;99.90
59128;DHT22;44912;52.754;5.994;2023-11-19T02:58:37;12.70;99.90
59128;DHT22;44912;52.754;5.994;2023-11-19T03:01:03;12.70;99.90
59128;DHT22;44912;52.754;5.994;2023-11-19T03:03:38;12.70;99.90
59128;DHT22;44912;52.754;5.994;2023-11-19T03:06:06;12.70;99.90
59128;DHT22;44912;52.754;5.994;2023-11-19T03:08:34;12.70;99.90
59128;DHT22;44912;52.754;5.994;2023-11-19T03:11:00;12.70;99.90
59128;DHT22;44912;52.754;5.994;2023-11-19T03:13:26;12.60;99.90
59128;DHT22;44912;52.754;5.994;2023-11-19T03:15:52;12.60;99.90
59128;DHT22;44912;52.754;5.994;2023-11-19T03:18:19;12.60;99.90
59128;DHT22;44912;52.754;5.994;2023-11-19T03:20:46;12.50;99.90
59128;DHT22;44912;52.754;5.994;2023-11-19T03:23:17;12.50;99.90
59128;DHT22;44912;52.754;5.994;2023-11-19T03:25:45;12.50;99.90
59128;DHT22;44912;52.754;5.994;2023-11-19T03:28:13;12.50;99.90
59128;DHT22;44912;52.754;5.994;2023-11-19T03:30:38;12.60;99.90
59128;DHT22;44912;52.754;5.994;2023-11-19T03:36:58;12.50;99.90
59128;DHT22;44912;52.754;5.994;2023-11-19T03:39:44;12.50;99.90
59128;DHT22;44912;52.754;5.994;2023-11-19T03:42:40;12.50;99.90
59128;DHT22;44912;52.754;5.994;2023-11-19T03:45:47;12.50;99.90
59128;DHT22;44912;52.754;5.994;2023-11-19T03:48:18;12.50;99.90
59128;DHT22;44912;52.754;5.994;2023-11-19T03:50:52;12.60;99.90
59128;DHT22;44912;52.754;5.994;2023-11-19T03:53:20;12.60;99.90
59128;DHT22;44912;52.754;5.994;2023-11-19T03:55:45;12.50;99.90
59128;DHT22;44912;52.754;5.994;2023-11-19T03:58:11;12.50;99.90
59128;DHT22;44912;52.754;5.994;2023-11-19T04:00:37;12.40;99.90
59128;DHT22;44912;52.754;5.994;2023-11-19T04:03:06;12.30;99.90
59128;DHT22;44912;52.754;5.994;2023-11-19T04:05:31;12.30;99.90
59128;DHT22;44912;52.754;5.994;2023-11-19T04:08:03;12.30;99.90
59128;DHT22;44912;52.754;5.994;2023-11-19T04:10:28;12.20;99.90
59128;DHT22;44912;52.754;5.994;2023-11-19T04:12:54;12.20;99.90
59128;DHT22;44912;52.754;5.994;2023-11-19T04:15:19;12.20;99.90
59128;DHT22;44912;52.754;5.994;2023-11-19T04:17:45;12.10;99.90
59128;DHT22;44912;52.754;5.994;2023-11-19T04:20:11;12.10;99.90
59128;DHT22;44912;52.754;5.994;2023-11-19T04:23:02;12.00;99.90
59128;DHT22;44912;52.754;5.994;2023-11-19T04:45:47;12.20;99.90
59128;DHT22;44912;52.754;5.994;2023-11-19T04:52:36;12.30;99.90
59128;DHT22;44912;52.754;5.994;2023-11-19T04:59:28;12.20;99.90
59128;DHT22;44912;52.754;5.994;2023-11-19T05:01:54;12.30;99.90
59128;DHT22;44912;52.754;5.994;2023-11-19T05:04:30;12.30;99.90
59128;DHT22;44912;52.754;5.994;2023-11-19T05:19:54;12.10;99.90
59128;DHT22;44912;52.754;5.994;2023-11-19T05:40:55;12.00;99.90
59128;DHT22;44912;52.754;5.994;2023-11-19T06:05:15;11.90;99.90
59128;DHT22;44912;52.754;5.994;2023-11-19T06:08:58;11.80;99.90
59128;DHT22;44912;52.754;5.994;2023-11-19T06:12:17;11.90;99.90
59128;DHT22;44912;52.754;5.994;2023-11-19T06:29:27;12.00;99.90
59128;DHT22;44912;52.754;5.994;2023-11-19T06:32:16;12.00;99.90
59128;DHT22;44912;52.754;5.994;2023-11-19T06:34:44;12.00;99.90
59128;DHT22;44912;52.754;5.994;2023-11-19T06:40:08;11.90;99.90
59128;DHT22;44912;52.754;5.994;2023-11-19T06:42:35;11.90;99.90
59128;DHT22;44912;52.754;5.994;2023-11-19T06:45:01;11.90;99.90
59128;DHT22;44912;52.754;5.994;2023-11-19T06:47:27;11.80;99.90
59128;DHT22;44912;52.754;5.994;2023-11-19T06:49:56;11.80;99.90
59128;DHT22;44912;52.754;5.994;2023-11-19T06:52:22;11.80;99.90
59128;DHT22;44912;52.754;5.994;2023-11-19T06:54:47;11.90;99.90
59128;DHT22;44912;52.754;5.994;2023-11-19T06:57:13;11.90;99.90
59128;DHT22;44912;52.754;5.994;2023-11-19T06:59:39;11.90;99.90
59128;DHT22;44912;52.754;5.994;2023-11-19T07:02:05;11.80;99.90
59128;DHT22;44912;52.754;5.994;2023-11-19T07:04:31;11.80;99.90
59128;DHT22;44912;52.754;5.994;2023-11-19T07:06:58;11.80;99.90
59128;DHT22;44912;52.754;5.994;2023-11-19T07:09:25;11.80;99.90
59128;DHT22;44912;52.754;5.994;2023-11-19T07:11:50;11.80;99.90
59128;DHT22;44912;52.754;5.994;2023-11-19T07:14:18;11.80;99.90
59128;DHT22;44912;52.754;5.994;2023-11-19T07:16:45;11.80;99.90
59128;DHT22;44912;52.754;5.994;2023-11-19T07:19:11;11.70;99.90
59128;DHT22;44912;52.754;5.994;2023-11-19T07:21:40;11.70;99.90
59128;DHT22;44912;52.754;5.994;2023-11-19T07:24:09;11.70;99.90
59128;DHT22;44912;52.754;5.994;2023-11-19T07:26:36;11.60;99.90
59128;DHT22;44912;52.754;5.994;2023-11-19T07:29:02;11.60;99.90
59128;DHT22;44912;52.754;5.994;2023-11-19T07:31:28;11.60;99.90
59128;DHT22;44912;52.754;5.994;2023-11-19T07:33:54;11.60;99.90
59128;DHT22;44912;52.754;5.994;2023-11-19T07:36:19;11.50;99.90
59128;DHT22;44912;52.754;5.994;2023-11-19T07:38:45;11.60;99.90
59128;DHT22;44912;52.754;5.994;2023-11-19T07:41:11;11.60;99.90
59128;DHT22;44912;52.754;5.994;2023-11-19T07:43:43;11.60;99.90
59128;DHT22;44912;52.754;5.994;2023-11-19T07:46:13;11.70;99.90
59128;DHT22;44912;52.754;5.994;2023-11-19T07:48:40;11.70;99.90
59128;DHT22;44912;52.754;5.994;2023-11-19T07:51:07;11.80;99.90
59128;DHT22;44912;52.754;5.994;2023-11-19T07:53:33;11.80;99.90
59128;DHT22;44912;52.754;5.994;2023-11-19T07:55:59;11.80;99.90
59128;DHT22;44912;52.754;5.994;2023-11-19T07:58:25;11.80;99.90
59128;DHT22;44912;52.754;5.994;2023-11-19T08:00:51;11.90;99.90
59128;DHT22;44912;52.754;5.994;2023-11-19T08:03:17;11.90;99.90
59128;DHT22;44912;52.754;5.994;2023-11-19T08:05:47;12.00;99.90
59128;DHT22;44912;52.754;5.994;2023-11-19T08:08:13;12.00;99.90
59128;DHT22;44912;52.754;5.994;2023-11-19T08:10:38;12.00;99.90
59128;DHT22;44912;52.754;5.994;2023-11-19T08:13:05;12.00;99.90
59128;DHT22;44912;52.754;5.994;2023-11-19T08:15:31;12.00;99.90
59128;DHT22;44912;52.754;5.994;2023-11-19T08:17:57;12.00;99.90
59128;DHT22;44912;52.754;5.994;2023-11-19T08:20:23;12.00;99.90
59128;DHT22;44912;52.754;5.994;2023-11-19T08:22:48;12.00;99.90
59128;DHT22;44912;52.754;5.994;2023-11-19T08:25:14;12.00;99.90
59128;DHT22;44912;52.754;5.994;2023-11-19T08:27:40;12.00;99.90
59128;DHT22;44912;52.754;5.994;2023-11-19T08:30:06;12.00;99.90
59128;DHT22;44912;52.754;5.994;2023-11-19T08:32:32;12.00;99.90
59128;DHT22;44912;52.754;5.994;2023-11-19T08:34:58;12.00;99.90
59128;DHT22;44912;52.754;5.994;2023-11-19T08:37:24;12.00;99.90
59128;DHT22;44912;52.754;5.994;2023-11-19T08:39:50;12.10;99.90
59128;DHT22;44912;52.754;5.994;2023-11-19T08:42:19;12.10;99.90
59128;DHT22;44912;52.754;5.994;2023-11-19T08:44:49;12.10;99.90
59128;DHT22;44912;52.754;5.994;2023-11-19T08:47:16;12.20;99.90
59128;DHT22;44912;52.754;5.994;2023-11-19T08:49:43;12.20;99.90
59128;DHT22;44912;52.754;5.994;2023-11-19T08:52:09;12.20;99.90
59128;DHT22;44912;52.754;5.994;2023-11-19T08:54:36;12.20;99.90
59128;DHT22;44912;52.754;5.994;2023-11-19T08:57:01;12.30;99.90
59128;DHT22;44912;52.754;5.994;2023-11-19T08:59:28;12.30;99.90
59128;DHT22;44912;52.754;5.994;2023-11-19T09:01:54;12.30;99.90
59128;DHT22;44912;52.754;5.994;2023-11-19T09:04:20;12.40;99.90
59128;DHT22;44912;52.754;5.994;2023-11-19T09:06:48;12.40;99.90
59128;DHT22;44912;52.754;5.994;2023-11-19T09:09:14;12.50;99.90
59128;DHT22;44912;52.754;5.994;2023-11-19T09:11:39;12.50;99.90
59128;DHT22;44912;52.754;5.994;2023-11-19T09:14:05;12.70;99.90
59128;DHT22;44912;52.754;5.994;2023-11-19T09:16:30;12.80;99.90
59128;DHT22;44912;52.754;5.994;2023-11-19T09:18:56;12.90;99.90
59128;DHT22;44912;52.754;5.994;2023-11-19T09:21:23;12.90;99.90
59128;DHT22;44912;52.754;5.994;2023-11-19T09:23:48;12.90;99.90
59128;DHT22;44912;52.754;5.994;2023-11-19T09:26:15;12.90;99.90
59128;DHT22;44912;52.754;5.994;2023-11-19T09:28:40;12.90;99.90
59128;DHT22;44912;52.754;5.994;2023-11-19T09:31:16;12.80;99.90
59128;DHT22;44912;52.754;5.994;2023-11-19T09:33:42;12.90;99.90
59128;DHT22;44912;52.754;5.994;2023-11-19T09:36:08;12.80;99.90
59128;DHT22;44912;52.754;5.994;2023-11-19T09:38:34;12.80;99.90
59128;DHT22;44912;52.754;5.994;2023-11-19T09:41:04;12.70;99.90
59128;DHT22;44912;52.754;5.994;2023-11-19T09:43:34;12.70;99.90
59128;DHT22;44912;52.754;5.994;2023-11-19T09:46:04;12.70;99.90
59128;DHT22;44912;52.754;5.994;2023-11-19T09:48:32;12.70;99.90
59128;DHT22;44912;52.754;5.994;2023-11-19T09:50:58;12.60;99.90
59128;DHT22;44912;52.754;5.994;2023-11-19T09:53:24;12.70;99.90
59128;DHT22;44912;52.754;5.994;2023-11-19T09:55:50;12.60;99.90
59128;DHT22;44912;52.754;5.994;2023-11-19T09:58:17;12.70;99.90
59128;DHT22;44912;52.754;5.994;2023-11-19T10:00:43;12.70;99.90
59128;DHT22;44912;52.754;5.994;2023-11-19T10:03:11;12.70;99.90
59128;DHT22;44912;52.754;5.994;2023-11-19T10:05:37;12.70;99.90
59128;DHT22;44912;52.754;5.994;2023-11-19T10:08:04;12.70;99.90
59128;DHT22;44912;52.754;5.994;2023-11-19T10:10:30;12.80;99.90
59128;DHT22;44912;52.754;5.994;2023-11-19T10:12:56;12.80;99.90
59128;DHT22;44912;52.754;5.994;2023-11-19T10:15:24;12.80;99.90
59128;DHT22;44912;52.754;5.994;2023-11-19T10:17:50;12.90;99.90
59128;DHT22;44912;52.754;5.994;2023-11-19T10:20:16;12.90;99.90
59128;DHT22;44912;52.754;5.994;2023-11-19T10:22:42;12.90;99.90
59128;DHT22;44912;52.754;5.994;2023-11-19T10:25:27;12.90;99.90
59128;DHT22;44912;52.754;5.994;2023-11-19T10:27:54;12.90;99.90
59128;DHT22;44912;52.754;5.994;2023-11-19T10:30:25;12.90;99.90
59128;DHT22;44912;52.754;5.994;2023-11-19T10:35:53;12.90;99.90
59128;DHT22;44912;52.754;5.994;2023-11-19T10:38:19;12.70;99.90
59128;DHT22;44912;52.754;5.994;2023-11-19T10:40:46;12.70;99.90
59128;DHT22;44912;52.754;5.994;2023-11-19T10:43:12;12.70;99.90
59128;DHT22;44912;52.754;5.994;2023-11-19T10:45:39;12.60;99.90
59128;DHT22;44912;52.754;5.994;2023-11-19T10:48:05;12.70;99.90
59128;DHT22;44912;52.754;5.994;2023-11-19T10:50:36;12.70;99.90
59128;DHT22;44912;52.754;5.994;2023-11-19T10:53:02;12.70;99.90
59128;DHT22;44912;52.754;5.994;2023-11-19T10:55:33;12.70;99.90
59128;DHT22;44912;52.754;5.994;2023-11-19T10:58:05;12.80;99.90
59128;DHT22;44912;52.754;5.994;2023-11-19T11:00:44;12.60;99.90
59128;DHT22;44912;52.754;5.994;2023-11-19T11:03:20;12.60;99.90
59128;DHT22;44912;52.754;5.994;2023-11-19T11:05:49;12.60;99.90
59128;DHT22;44912;52.754;5.994;2023-11-19T11:08:15;12.60;99.90
59128;DHT22;44912;52.754;5.994;2023-11-19T11:10:55;12.60;99.90
59128;DHT22;44912;52.754;5.994;2023-11-19T11:13:25;12.70;99.90
59128;DHT22;44912;52.754;5.994;2023-11-19T11:15:53;12.70;99.90
59128;DHT22;44912;52.754;5.994;2023-11-19T11:18:20;12.70;99.90
59128;DHT22;44912;52.754;5.994;2023-11-19T11:20:46;12.70;99.90
59128;DHT22;44912;52.754;5.994;2023-11-19T11:34:47;12.60;99.90
59128;DHT22;44912;52.754;5.994;2023-11-19T11:37:32;12.60;99.90
59128;DHT22;44912;52.754;5.994;2023-11-19T11:39:58;12.60;99.90
59128;DHT22;44912;52.754;5.994;2023-11-19T11:45:12;12.70;99.90
59128;DHT22;44912;52.754;5.994;2023-11-19T11:50:14;12.60;99.90
59128;DHT22;44912;52.754;5.994;2023-11-19T11:53:13;12.60;99.90
59128;DHT22;44912;52.754;5.994;2023-11-19T11:55:53;12.50;99.90
59128;DHT22;44912;52.754;5.994;2023-11-19T11:58:27;12.40;99.90
59128;DHT22;44912;52.754;5.994;2023-11-19T12:00:57;12.40;99.90
59128;DHT22;44912;52.754;5.994;2023-11-19T12:03:24;12.40;99.90
59128;DHT22;44912;52.754;5.994;2023-11-19T12:05:52;12.40;99.90
59128;DHT22;44912;52.754;5.994;2023-11-19T12:08:19;12.50;99.90
59128;DHT22;44912;52.754;5.994;2023-11-19T12:13:13;12.60;99.90
59128;DHT22;44912;52.754;5.994;2023-11-19T12:18:28;12.70;99.90
59128;DHT22;44912;52.754;5.994;2023-11-19T12:20:54;12.70;99.90
59128;DHT22;44912;52.754;5.994;2023-11-19T12:23:20;12.80;99.90
59128;DHT22;44912;52.754;5.994;2023-11-19T12:25:46;12.80;99.90
59128;DHT22;44912;52.754;5.994;2023-11-19T12:28:12;12.80;99.90
59128;DHT22;44912;52.754;5.994;2023-11-19T12:30:39;12.80;99.90
59128;DHT22;44912;52.754;5.994;2023-11-19T12:33:12;12.80;99.90
59128;DHT22;44912;52.754;5.994;2023-11-19T12:35:45;12.80;99.90
59128;DHT22;44912;52.754;5.994;2023-11-19T12:38:21;12.70;99.90
59128;DHT22;44912;52.754;5.994;2023-11-19T12:40:47;12.70;99.90
59128;DHT22;44912;52.754;5.994;2023-11-19T12:43:27;12.70;99.90
59128;DHT22;44912;52.754;5.994;2023-11-19T12:45:52;12.70;99.90
59128;DHT22;44912;52.754;5.994;2023-11-19T12:48:18;12.70;99.90
59128;DHT22;44912;52.754;5.994;2023-11-19T12:53:17;12.90;99.90
59128;DHT22;44912;52.754;5.994;2023-11-19T12:55:43;12.80;99.90
59128;DHT22;44912;52.754;5.994;2023-11-19T12:58:09;12.90;99.90
59128;DHT22;44912;52.754;5.994;2023-11-19T13:00:34;12.90;99.90
59128;DHT22;44912;52.754;5.994;2023-11-19T13:03:00;12.90;99.90
59128;DHT22;44912;52.754;5.994;2023-11-19T13:05:33;12.90;99.90
59128;DHT22;44912;52.754;5.994;2023-11-19T13:08:05;12.90;99.90
59128;DHT22;44912;52.754;5.994;2023-11-19T13:10:32;12.90;99.90
59128;DHT22;44912;52.754;5.994;2023-11-19T13:13:06;12.90;99.90
59128;DHT22;44912;52.754;5.994;2023-11-19T13:15:34;12.90;99.90
59128;DHT22;44912;52.754;5.994;2023-11-19T13:18:01;12.90;99.90
59128;DHT22;44912;52.754;5.994;2023-11-19T13:20:27;12.80;99.90
59128;DHT22;44912;52.754;5.994;2023-11-19T13:23:00;12.80;99.90
59128;DHT22;44912;52.754;5.994;2023-11-19T13:25:27;12.70;99.90
59128;DHT22;44912;52.754;5.994;2023-11-19T13:27:53;12.70;99.90
59128;DHT22;44912;52.754;5.994;2023-11-19T13:30:20;12.60;99.90
59128;DHT22;44912;52.754;5.994;2023-11-19T13:32:45;12.50;99.90
59128;DHT22;44912;52.754;5.994;2023-11-19T13:35:12;12.40;99.90
59128;DHT22;44912;52.754;5.994;2023-11-19T13:37:39;12.40;99.90
59128;DHT22;44912;52.754;5.994;2023-11-19T13:40:06;12.30;99.90
59128;DHT22;44912;52.754;5.994;2023-11-19T13:42:31;12.20;99.90
59128;DHT22;44912;52.754;5.994;2023-11-19T13:44:57;12.10;99.90
59128;DHT22;44912;52.754;5.994;2023-11-19T13:47:22;12.10;99.90
59128;DHT22;44912;52.754;5.994;2023-11-19T13:49:49;12.10;99.90
59128;DHT22;44912;52.754;5.994;2023-11-19T13:52:15;12.10;99.90
59128;DHT22;44912;52.754;5.994;2023-11-19T13:54:40;12.10;99.90
59128;DHT22;44912;52.754;5.994;2023-11-19T13:57:06;12.00;99.90
59128;DHT22;44912;52.754;5.994;2023-11-19T13:59:32;12.10;99.90
59128;DHT22;44912;52.754;5.994;2023-11-19T14:01:58;12.00;99.90
59128;DHT22;44912;52.754;5.994;2023-11-19T14:04:23;12.10;99.90
59128;DHT22;44912;52.754;5.994;2023-11-19T14:06:49;12.00;99.90
59128;DHT22;44912;52.754;5.994;2023-11-19T14:09:15;12.00;99.90
59128;DHT22;44912;52.754;5.994;2023-11-19T14:11:40;12.10;99.90
59128;DHT22;44912;52.754;5.994;2023-11-19T14:14:07;12.00;99.90
59128;DHT22;44912;52.754;5.994;2023-11-19T14:16:33;12.10;99.90
59128;DHT22;44912;52.754;5.994;2023-11-19T14:18:59;12.10;99.90
59128;DHT22;44912;52.754;5.994;2023-11-19T14:21:25;12.10;99.90
59128;DHT22;44912;52.754;5.994;2023-11-19T14:23:52;12.20;99.90
59128;DHT22;44912;52.754;5.994;2023-11-19T14:26:18;12.10;99.90
59128;DHT22;44912;52.754;5.994;2023-11-19T14:28:43;12.10;99.90
59128;DHT22;44912;52.754;5.994;2023-11-19T14:31:09;12.20;99.90
59128;DHT22;44912;52.754;5.994;2023-11-19T14:33:34;12.20;99.90
59128;DHT22;44912;52.754;5.994;2023-11-19T14:36:01;12.20;99.90
59128;DHT22;44912;52.754;5.994;2023-11-19T14:38:27;12.20;99.90
59128;DHT22;44912;52.754;5.994;2023-11-19T14:40:52;12.10;99.90
59128;DHT22;44912;52.754;5.994;2023-11-19T14:43:18;12.20;99.90
59128;DHT22;44912;52.754;5.994;2023-11-19T14:45:44;12.10;99.90
59128;DHT22;44912;52.754;5.994;2023-11-19T14:48:09;12.20;99.90
59128;DHT22;44912;52.754;5.994;2023-11-19T14:50:35;12.20;99.90
59128;DHT22;44912;52.754;5.994;2023-11-19T14:53:01;12.30;99.90
59128;DHT22;44912;52.754;5.994;2023-11-19T14:55:27;12.30;99.90
59128;DHT22;44912;52.754;5.994;2023-11-19T14:57:53;12.30;99.90
59128;DHT22;44912;52.754;5.994;2023-11-19T15:00:19;12.30;99.90
59128;DHT22;44912;52.754;5.994;2023-11-19T15:02:44;12.30;99.90
59128;DHT22;44912;52.754;5.994;2023-11-19T15:05:10;12.30;99.90
59128;DHT22;44912;52.754;5.994;2023-11-19T15:07:39;12.30;99.90
59128;DHT22;44912;52.754;5.994;2023-11-19T15:10:06;12.20;99.90
59128;DHT22;44912;52.754;5.994;2023-11-19T15:12:39;12.30;99.90
59128;DHT22;44912;52.754;5.994;2023-11-19T15:15:08;12.30;99.90
59128;DHT22;44912;52.754;5.994;2023-11-19T15:17:40;12.20;99.90
59128;DHT22;44912;52.754;5.994;2023-11-19T15:20:06;12.20;99.90
59128;DHT22;44912;52.754;5.994;2023-11-19T15:22:32;12.20;99.90
59128;DHT22;44912;52.754;5.994;2023-11-19T15:24:58;12.00;99.90
59128;DHT22;44912;52.754;5.994;2023-11-19T15:27:23;12.00;99.90
59128;DHT22;44912;52.754;5.994;2023-11-19T15:29:49;11.90;99.90
59128;DHT22;44912;52.754;5.994;2023-11-19T15:32:14;11.90;99.90
59128;DHT22;44912;52.754;5.994;2023-11-19T15:34:40;11.80;99.90
59128;DHT22;44912;52.754;5.994;2023-11-19T15:37:07;11.80;99.90
59128;DHT22;44912;52.754;5.994;2023-11-19T15:39:33;11.80;99.90
59128;DHT22;44912;52.754;5.994;2023-11-19T15:42:01;11.70;99.90
59128;DHT22;44912;52.754;5.994;2023-11-19T15:44:27;11.70;99.90
59128;DHT22;44912;52.754;5.994;2023-11-19T15:46:53;11.80;99.90
59128;DHT22;44912;52.754;5.994;2023-11-19T15:49:19;11.70;99.90
59128;DHT22;44912;52.754;5.994;2023-11-19T15:51:44;11.70;99.90
59128;DHT22;44912;52.754;5.994;2023-11-19T15:54:10;11.70;99.90
59128;DHT22;44912;52.754;5.994;2023-11-19T15:56:36;11.60;99.90
59128;DHT22;44912;52.754;5.994;2023-11-19T15:59:02;11.60;99.90
59128;DHT22;44912;52.754;5.994;2023-11-19T16:01:30;11.60;99.90
59128;DHT22;44912;52.754;5.994;2023-11-19T16:03:56;11.60;99.90
59128;DHT22;44912;52.754;5.994;2023-11-19T16:06:21;11.60;99.90
59128;DHT22;44912;52.754;5.994;2023-11-19T16:08:48;11.60;99.90
59128;DHT22;44912;52.754;5.994;2023-11-19T16:11:15;11.50;99.90
59128;DHT22;44912;52.754;5.994;2023-11-19T16:13:40;11.60;99.90
59128;DHT22;44912;52.754;5.994;2023-11-19T16:16:06;11.50;99.90
59128;DHT22;44912;52.754;5.994;2023-11-19T16:18:32;11.50;99.90
59128;DHT22;44912;52.754;5.994;2023-11-19T16:20:58;11.50;99.90
59128;DHT22;44912;52.754;5.994;2023-11-19T16:23:23;11.50;99.90
59128;DHT22;44912;52.754;5.994;2023-11-19T16:25:49;11.50;99.90
59128;DHT22;44912;52.754;5.994;2023-11-19T16:28:15;11.50;99.90
59128;DHT22;44912;52.754;5.994;2023-11-19T16:30:43;11.50;99.90
59128;DHT22;44912;52.754;5.994;2023-11-19T16:33:09;11.50;99.90
59128;DHT22;44912;52.754;5.994;2023-11-19T16:35:34;11.50;99.90
59128;DHT22;44912;52.754;5.994;2023-11-19T16:38:00;11.50;99.90
59128;DHT22;44912;52.754;5.994;2023-11-19T16:40:27;11.50;99.90
59128;DHT22;44912;52.754;5.994;2023-11-19T16:42:52;11.50;99.90
59128;DHT22;44912;52.754;5.994;2023-11-19T16:45:18;11.50;99.90
59128;DHT22;44912;52.754;5.994;2023-11-19T16:47:43;11.50;99.90
59128;DHT22;44912;52.754;5.994;2023-11-19T16:50:10;11.50;99.90
59128;DHT22;44912;52.754;5.994;2023-11-19T16:52:37;11.60;99.90
59128;DHT22;44912;52.754;5.994;2023-11-19T16:55:03;11.50;99.90
59128;DHT22;44912;52.754;5.994;2023-11-19T16:57:31;11.50;99.90
59128;DHT22;44912;52.754;5.994;2023-11-19T16:59:57;11.50;99.90
59128;DHT22;44912;52.754;5.994;2023-11-19T17:02:24;11.50;99.90
59128;DHT22;44912;52.754;5.994;2023-11-19T17:04:50;11.40;99.90
59128;DHT22;44912;52.754;5.994;2023-11-19T17:07:16;11.50;99.90
59128;DHT22;44912;52.754;5.994;2023-11-19T17:09:42;11.50;99.90
59128;DHT22;44912;52.754;5.994;2023-11-19T17:12:08;11.50;99.90
59128;DHT22;44912;52.754;5.994;2023-11-19T17:14:34;11.50;99.90
59128;DHT22;44912;52.754;5.994;2023-11-19T17:17:00;11.50;99.90
59128;DHT22;44912;52.754;5.994;2023-11-19T17:19:26;11.60;99.90
59128;DHT22;44912;52.754;5.994;2023-11-19T17:21:52;11.50;99.90
59128;DHT22;44912;52.754;5.994;2023-11-19T17:24:17;11.50;99.90
59128;DHT22;44912;52.754;5.994;2023-11-19T17:26:43;11.70;99.90
59128;DHT22;44912;52.754;5.994;2023-11-19T17:29:09;11.60;99.90
59128;DHT22;44912;52.754;5.994;2023-11-19T17:31:36;11.60;99.90
59128;DHT22;44912;52.754;5.994;2023-11-19T17:34:02;11.60;99.90
59128;DHT22;44912;52.754;5.994;2023-11-19T17:36:28;11.60;99.90
59128;DHT22;44912;52.754;5.994;2023-11-19T17:38:54;11.60;99.90
59128;DHT22;44912;52.754;5.994;2023-11-19T17:41:19;11.60;99.90
59128;DHT22;44912;52.754;5.994;2023-11-19T17:43:45;11.60;99.90
59128;DHT22;44912;52.754;5.994;2023-11-19T17:46:11;11.70;99.90
59128;DHT22;44912;52.754;5.994;2023-11-19T17:48:36;11.60;99.90